Time;durP1;ratioP1;P1;durP2;ratioP2;P2;SDS_P1;SDS_P2;PMS_P1;PMS_P2;Temp;Humidity;BMP_temperature;BMP_pressure;BME280_temperature;BME280_humidity;BME280_pressure;Samples;Min_cycle;Max_cycle;Signal;HPM_P1;HPM_P2
2023/08/07 00:02:46;;;;;;;6.67;3.17;;;;;;;15.18;100.00;99924.44;6101701;28;20025;-64
2023/08/07 00:05:44;;;;;;;7.57;3.60;;;;;;;15.13;100.00;99916.19;6101063;28;20021;-65
2023/08/07 00:08:40;;;;;;;8.52;3.70;;;;;;;15.22;100.00;99931.03;6100179;28;20017;-65
2023/08/07 00:11:35;;;;;;;9.07;3.13;;;;;;;15.16;100.00;99918.47;6100441;28;20035;-65
2023/08/07 00:14:30;;;;;;;8.53;3.40;;;;;;;15.19;100.00;99934.09;6099780;28;20036;-65
2023/08/07 00:17:26;;;;;;;7.43;3.40;;;;;;;15.20;100.00;99926.91;6101282;28;20301;-65
2023/08/07 00:20:21;;;;;;;8.30;3.35;;;;;;;15.20;100.00;99926.91;6100026;28;20131;-64
2023/08/07 00:23:17;;;;;;;8.15;3.55;;;;;;;15.05;100.00;99945.72;6107742;28;20032;-66
2023/08/07 00:26:12;;;;;;;9.27;4.23;;;;;;;14.90;100.00;99952.97;6100903;28;20024;-66
2023/08/07 00:29:07;;;;;;;9.53;4.07;;;;;;;14.62;100.00;99930.75;6108126;28;20170;-65
2023/08/07 00:32:03;;;;;;;9.20;4.27;;;;;;;14.65;100.00;99954.38;6099906;28;20479;-65
2023/08/07 00:34:58;;;;;;;9.02;4.20;;;;;;;14.55;100.00;99952.03;6106438;28;20021;-65
2023/08/07 00:37:53;;;;;;;11.43;4.57;;;;;;;14.46;100.00;99949.69;6099291;28;20079;-64
2023/08/07 00:40:49;;;;;;;9.43;4.77;;;;;;;14.41;100.00;99954.75;6105499;28;20090;-64
2023/08/07 00:43:44;;;;;;;9.10;4.93;;;;;;;14.32;100.00;99959.41;6118539;28;20059;-65
2023/08/07 00:46:40;;;;;;;13.37;4.40;;;;;;;14.15;100.00;99931.25;6099492;28;20072;-64
2023/08/07 00:49:35;;;;;;;8.50;3.85;;;;;;;14.15;100.00;99936.59;6105592;28;20017;-64
2023/08/07 00:52:32;;;;;;;7.70;4.50;;;;;;;14.12;100.00;99937.81;6109483;28;20053;-64
2023/08/07 00:55:29;;;;;;;8.27;4.05;;;;;;;14.09;100.00;99932.00;6113776;28;20037;-64
2023/08/07 00:58:24;;;;;;;9.75;3.95;;;;;;;14.15;100.00;99942.75;6100720;28;20035;-64
2023/08/07 01:01:19;;;;;;;7.18;3.78;;;;;;;14.13;100.00;99950.09;6099000;28;20037;-64
2023/08/07 01:04:15;;;;;;;8.25;3.80;;;;;;;14.16;100.00;99955.06;6106096;28;20349;-63
2023/08/07 01:07:10;;;;;;;8.33;4.33;;;;;;;14.14;100.00;99949.09;6105051;28;20032;-64
2023/08/07 01:10:06;;;;;;;9.73;4.50;;;;;;;14.06;100.00;99935.88;6099212;28;20372;-64
2023/08/07 01:13:19;;;;;;;8.35;4.53;;;;;;;14.18;100.00;99945.06;6111086;28;20285;-64
2023/08/07 01:16:19;;;;;;;8.38;4.32;;;;;;;14.12;100.00;99945.81;6092738;28;20036;-64
2023/08/07 01:19:27;;;;;;;;;;;;;;;14.21;100.00;99951.84;6099564;28;20032;-64
2023/08/07 01:22:22;;;;;;;8.15;4.35;;;;;;;14.09;100.00;99938.16;6098670;28;19904;-64
2023/08/07 01:25:18;;;;;;;8.20;5.03;;;;;;;14.06;100.00;99927.88;6097669;28;20025;-64
2023/08/07 01:28:27;;;;;;;8.17;4.63;;;;;;;14.10;100.00;99934.50;6101598;28;20333;-64
2023/08/07 01:31:24;;;;;;;9.63;5.13;;;;;;;13.99;100.00;99915.50;6098496;28;20761;-64
2023/08/07 01:34:21;;;;;;;9.75;4.93;;;;;;;14.07;100.00;99928.72;6098786;28;20533;-64
2023/08/07 01:37:17;;;;;;;12.13;4.43;;;;;;;13.98;100.00;99924.50;6113296;28;20025;-64
2023/08/07 01:40:13;;;;;;;10.63;4.97;;;;;;;14.07;100.00;99940.22;6096912;28;20380;-64
2023/08/07 01:43:08;;;;;;;12.07;4.97;;;;;;;14.08;100.00;99936.50;6115737;28;20091;-64
2023/08/07 01:46:06;;;;;;;9.80;4.93;;;;;;;13.93;100.00;99916.22;6104612;28;20391;-64
2023/08/07 01:49:01;;;;;;;8.00;4.25;;;;;;;14.11;100.00;99935.31;6098594;28;20400;-64
2023/08/07 01:51:57;;;;;;;9.70;5.17;;;;;;;14.11;100.00;99938.81;6108806;28;20112;-64
2023/08/07 01:54:52;;;;;;;9.53;5.00;;;;;;;14.07;100.00;99934.88;6097387;28;20032;-64
2023/08/07 01:57:47;;;;;;;8.90;4.43;;;;;;;14.06;100.00;99937.72;6097758;28;20073;-64
2023/08/07 02:00:42;;;;;;;11.40;4.87;;;;;;;14.10;100.00;99939.84;6097247;28;20395;-64
2023/08/07 02:03:38;;;;;;;9.00;5.07;;;;;;;13.95;100.00;99920.38;6092305;28;20267;-64
2023/08/07 02:06:33;;;;;;;10.87;5.10;;;;;;;13.94;100.00;99924.03;6102030;28;20063;-64
2023/08/07 02:09:28;;;;;;;9.83;4.80;;;;;;;13.96;100.00;99924.69;6092869;28;20352;-64
2023/08/07 02:12:25;;;;;;;10.93;5.78;;;;;;;13.93;100.00;99921.56;6097884;28;20037;-64
2023/08/07 02:15:20;;;;;;;13.90;6.07;;;;;;;13.97;100.00;99934.31;6096856;28;20357;-64
2023/08/07 02:18:15;;;;;;;14.23;5.77;;;;;;;13.99;100.00;99931.50;6103965;28;20086;-64
2023/08/07 02:21:11;;;;;;;12.87;6.80;;;;;;;13.96;100.00;99924.69;6103768;28;20079;-64
2023/08/07 02:24:06;;;;;;;14.80;7.33;;;;;;;13.99;100.00;99923.50;6097462;28;20067;-64
2023/08/07 02:27:01;;;;;;;17.43;7.63;;;;;;;14.06;100.00;99938.53;6097365;28;20456;-64
2023/08/07 02:29:57;;;;;;;15.90;8.53;;;;;;;13.99;100.00;99913.66;6097423;28;20060;-64
2023/08/07 02:32:52;;;;;;;15.73;8.55;;;;;;;14.09;100.00;99935.50;6109480;28;20332;-64
2023/08/07 02:35:47;;;;;;;16.10;9.00;;;;;;;14.13;100.00;99942.09;6103754;28;20029;-64
2023/08/07 02:38:43;;;;;;;13.77;8.53;;;;;;;14.14;100.00;99946.44;6100530;28;20025;-64
2023/08/07 02:41:38;;;;;;;15.63;7.93;;;;;;;14.12;100.00;99932.47;6103890;28;20271;-64
2023/08/07 02:44:33;;;;;;;13.77;8.07;;;;;;;14.03;100.00;99922.09;6105599;28;20036;-64
2023/08/07 02:47:29;;;;;;;17.47;7.80;;;;;;;14.03;100.00;99927.41;6098050;28;20025;-64
2023/08/07 02:50:26;;;;;;;15.13;8.47;;;;;;;14.09;100.00;99945.34;6102122;28;20029;-64
2023/08/07 02:53:21;;;;;;;14.82;7.63;;;;;;;14.08;100.00;99944.50;6105361;28;20039;-64
2023/08/07 02:56:16;;;;;;;14.33;7.63;;;;;;;13.99;100.00;99936.81;6104265;28;20020;-64
2023/08/07 02:59:12;;;;;;;12.43;7.13;;;;;;;13.92;100.00;99942.06;6107771;28;20107;-64
2023/08/07 03:02:07;;;;;;;15.00;7.13;;;;;;;14.00;100.00;99949.94;6102157;28;20400;-64
2023/08/07 03:05:03;;;;;;;13.63;7.70;;;;;;;14.01;100.00;99956.13;6101416;28;20028;-64
2023/08/07 03:07:58;;;;;;;13.63;7.53;;;;;;;13.96;100.00;99954.00;6111023;28;20040;-63
2023/08/07 03:10:57;;;;;;;10.40;6.43;;;;;;;13.90;100.00;99941.44;6104427;28;20391;-64
2023/08/07 03:13:53;;;;;;;11.85;6.57;;;;;;;13.84;100.00;99939.50;6105357;28;20048;-64
2023/08/07 03:16:48;;;;;;;10.80;5.80;;;;;;;13.79;100.00;99936.56;6113075;28;20033;-64
2023/08/07 03:19:43;;;;;;;16.07;7.33;;;;;;;13.88;100.00;99954.13;6101673;28;20025;-64
2023/08/07 03:22:39;;;;;;;10.75;6.15;;;;;;;13.80;100.00;99948.88;6109937;28;20271;-64
2023/08/07 03:25:34;;;;;;;12.53;5.90;;;;;;;13.85;100.00;99962.47;6100927;28;20071;-64
2023/08/07 03:28:30;;;;;;;8.27;5.10;;;;;;;13.83;100.00;99947.69;6105553;28;20350;-64
2023/08/07 03:31:25;;;;;;;9.82;5.50;;;;;;;13.90;100.00;99967.25;6109250;28;20108;-64
2023/08/07 03:34:20;;;;;;;12.30;5.37;;;;;;;13.79;100.00;99952.56;6110321;28;20064;-64
2023/08/07 03:37:15;;;;;;;11.50;5.57;;;;;;;13.82;100.00;99956.69;6101029;28;20142;-64
2023/08/07 03:40:11;;;;;;;16.30;5.73;;;;;;;13.85;100.00;99973.16;6100769;28;20031;-64
2023/08/07 03:43:06;;;;;;;9.98;4.97;;;;;;;13.89;100.00;99977.06;6101829;28;20470;-64
2023/08/07 03:46:01;;;;;;;11.07;5.60;;;;;;;13.81;100.00;99963.03;6109512;28;20025;-64
2023/08/07 03:48:57;;;;;;;15.73;5.47;;;;;;;13.97;100.00;99978.84;6100837;28;20029;-64
2023/08/07 03:51:52;;;;;;;12.03;5.20;;;;;;;13.96;100.00;99983.34;6101263;28;20436;-64
2023/08/07 03:54:47;;;;;;;10.73;4.67;;;;;;;13.94;100.00;99972.00;6105266;28;20029;-64
2023/08/07 03:57:43;;;;;;;8.27;4.97;;;;;;;14.03;100.00;99992.22;6100561;28;20298;-64
2023/08/07 04:00:38;;;;;;;12.85;5.53;;;;;;;14.03;100.00;99984.22;6106832;28;20380;-64
2023/08/07 04:03:33;;;;;;;10.57;4.90;;;;;;;13.96;100.00;99983.34;6103063;28;20586;-64
2023/08/07 04:06:29;;;;;;;9.40;4.33;;;;;;;14.11;100.00;99994.78;6109320;28;20278;-64
2023/08/07 04:09:24;;;;;;;8.90;4.63;;;;;;;14.13;100.00;99990.09;6103953;28;20419;-63
2023/08/07 04:12:19;;;;;;;9.60;4.83;;;;;;;14.11;100.00;99978.78;6100354;28;20681;-64
2023/08/07 04:15:15;;;;;;;8.00;4.70;;;;;;;14.13;100.00;99992.75;6099810;28;20476;-65
2023/08/07 04:18:11;;;;;;;8.73;4.13;;;;;;;14.13;100.00;99998.09;6099974;28;20032;-64
2023/08/07 04:21:07;;;;;;;9.32;4.30;;;;;;;14.12;100.00;99995.63;6106001;28;20275;-65
2023/08/07 04:24:10;;;;;;;9.20;5.00;;;;;;;14.08;100.00;99986.34;6101647;28;20102;-65
2023/08/07 04:27:05;;;;;;;9.93;4.72;;;;;;;14.09;100.00;99974.66;6107561;28;20024;-64
2023/08/07 04:30:01;;;;;;;7.78;4.80;;;;;;;14.07;100.00;99982.88;6100150;28;20025;-65
2023/08/07 04:32:56;;;;;;;8.57;4.73;;;;;;;14.06;100.00;99978.53;6109167;28;20074;-64
2023/08/07 04:35:51;;;;;;;13.47;5.67;;;;;;;14.14;100.00;100007.75;6099490;28;20079;-64
2023/08/07 04:38:46;;;;;;;14.63;4.93;;;;;;;14.08;100.00;99994.34;6099836;28;20029;-64
2023/08/07 04:41:42;;;;;;;13.80;6.03;;;;;;;14.00;100.00;99997.94;6102831;28;20029;-64
2023/08/07 04:44:37;;;;;;;11.97;6.33;;;;;;;13.99;100.00;99995.47;6105436;28;20372;-64
2023/08/07 04:47:32;;;;;;;10.97;5.63;;;;;;;14.04;100.00;100025.88;6101444;28;20032;-64
2023/08/07 04:50:29;;;;;;;14.10;6.17;;;;;;;13.99;100.00;100004.28;6100583;28;20040;-65
2023/08/07 04:53:24;;;;;;;15.82;6.55;;;;;;;13.97;100.00;100016.16;6094966;28;20021;-64
2023/08/07 04:56:19;;;;;;;14.77;6.50;;;;;;;13.83;100.00;99996.50;6097604;28;20043;-64
2023/08/07 04:59:15;;;;;;;13.67;7.63;;;;;;;13.95;100.00;100027.00;6092670;28;20772;-64
2023/08/07 05:02:10;;;;;;;19.57;7.70;;;;;;;13.92;100.00;100031.84;6095247;28;20495;-63
2023/08/07 05:05:06;;;;;;;18.60;6.82;;;;;;;13.93;100.00;100037.00;6097449;28;20310;-63
2023/08/07 05:08:01;;;;;;;16.48;7.03;;;;;;;13.92;100.00;100027.34;6099424;28;20491;-64
2023/08/07 05:10:57;;;;;;;18.33;7.90;;;;;;;13.89;100.00;100026.91;6098695;28;20354;-64
2023/08/07 05:13:52;;;;;;;16.07;7.13;;;;;;;13.95;100.00;100032.31;6101855;28;20465;-63
2023/08/07 05:16:48;;;;;;;20.93;7.27;;;;;;;13.87;100.00;100013.75;6100045;28;20118;-63
2023/08/07 05:19:43;;;;;;;17.83;7.97;;;;;;;14.00;100.00;100024.59;6102629;28;20662;-66
2023/08/07 05:22:38;;;;;;;14.53;7.13;;;;;;;13.84;100.00;100000.78;6105937;28;20077;-64
2023/08/07 05:25:34;;;;;;;14.60;7.35;;;;;;;14.07;100.00;100036.19;6100488;28;20029;-63
2023/08/07 05:28:29;;;;;;;13.57;6.37;;;;;;;13.87;100.00;100003.09;6107389;28;20425;-63
2023/08/07 05:31:24;;;;;;;12.23;6.40;;;;;;;13.93;100.00;100013.03;6098494;28;20122;-63
2023/08/07 05:34:20;;;;;;;17.48;7.53;;;;;;;13.98;100.00;100025.78;6100194;28;20029;-64
2023/08/07 05:37:16;;;;;;;14.23;6.63;;;;;;;13.91;100.00;100019.56;6100923;28;20029;-64
2023/08/07 05:40:14;;;;;;;12.63;7.37;;;;;;;14.05;100.00;100040.84;6105232;28;20043;-64
2023/08/07 05:43:09;;;;;;;11.57;7.07;;;;;;;14.04;100.00;100036.56;6098349;28;20029;-64
2023/08/07 05:46:04;;;;;;;15.67;6.53;;;;;;;14.08;100.00;100042.31;6100756;28;20033;-64
2023/08/07 05:48:59;;;;;;;11.73;5.77;;;;;;;14.05;100.00;100048.84;6108501;28;20043;-63
2023/08/07 05:51:55;;;;;;;11.13;6.23;;;;;;;14.04;100.00;100036.56;6105677;28;20047;-64
2023/08/07 05:54:50;;;;;;;14.37;5.93;;;;;;;13.99;100.00;100030.13;6102436;28;20341;-64
2023/08/07 05:57:45;;;;;;;9.87;5.60;;;;;;;14.05;100.00;100035.53;6097767;28;20298;-63
2023/08/07 06:00:41;;;;;;;11.85;5.60;;;;;;;14.09;100.00;100039.50;6097804;28;20119;-64
2023/08/07 06:03:36;;;;;;;9.97;5.43;;;;;;;14.14;100.00;100054.94;6089919;28;20507;-64
2023/08/07 06:06:34;;;;;;;9.15;5.57;;;;;;;14.19;100.00;100044.53;6096446;28;20033;-64
2023/08/07 06:09:29;;;;;;;12.10;5.30;;;;;;;14.23;100.00;100049.31;6102892;28;20651;-64
2023/08/07 06:12:25;;;;;;;8.07;4.33;;;;;;;14.27;100.00;100057.75;6098313;28;20033;-64
2023/08/07 06:15:20;;;;;;;10.32;4.55;;;;;;;14.23;100.00;100052.00;6094494;28;20044;-64
2023/08/07 06:18:15;;;;;;;11.23;4.17;;;;;;;14.30;100.00;100046.72;6098538;28;20021;-64
2023/08/07 06:21:11;;;;;;;7.23;4.00;;;;;;;14.19;100.00;100045.34;6094234;28;20060;-64
2023/08/07 06:24:06;;;;;;;8.40;4.20;;;;;;;14.32;100.00;100064.22;6099497;28;20486;-64
2023/08/07 06:27:02;;;;;;;9.48;4.22;;;;;;;14.28;100.00;100054.09;6104114;28;20375;-64
2023/08/07 06:29:59;;;;;;;10.20;3.85;;;;;;;14.32;100.00;100050.88;6095142;28;20380;-64
2023/08/07 06:32:54;;;;;;;7.80;4.15;;;;;;;14.39;100.00;100056.31;6094368;28;20442;-64
2023/08/07 06:35:52;;;;;;;10.40;3.77;;;;;;;14.47;100.00;100058.88;6086573;28;20025;-64
2023/08/07 06:38:47;;;;;;;8.82;3.58;;;;;;;14.60;100.00;100064.34;6097622;28;20067;-64
2023/08/07 06:41:42;;;;;;;6.57;3.60;;;;;;;14.62;100.00;100051.66;6106176;28;20119;-64
2023/08/07 06:44:38;;;;;;;5.97;3.37;;;;;;;14.63;100.00;100052.47;6098150;28;20024;-64
2023/08/07 06:47:33;;;;;;;6.00;3.60;;;;;;;14.77;100.00;100067.63;6100685;28;20039;-64
2023/08/07 06:50:28;;;;;;;4.93;2.80;;;;;;;14.80;100.00;100070.75;6097762;28;20040;-64
2023/08/07 06:53:24;;;;;;;5.20;2.90;;;;;;;14.74;100.00;100065.34;6096867;28;20475;-64
2023/08/07 06:56:19;;;;;;;6.87;3.33;;;;;;;14.83;100.00;100059.72;6101859;28;20048;-64
2023/08/07 06:59:14;;;;;;;5.73;3.10;;;;;;;14.91;100.00;100077.44;6102125;28;20775;-64
2023/08/07 07:02:10;;;;;;;7.40;3.00;;;;;;;14.95;100.00;100073.34;6112717;28;20305;-64
2023/08/07 07:05:05;;;;;;;5.53;2.50;;;;;;;15.06;100.00;100077.38;6103664;28;20117;-64
2023/08/07 07:08:01;;;;;;;4.70;2.55;;;;;;;14.86;100.00;100063.84;6105718;28;20035;-64
2023/08/07 07:10:58;;;;;;;6.15;3.08;;;;;;;14.88;100.00;100080.47;6100608;28;20106;-64
2023/08/07 07:13:53;;;;;;;6.47;2.78;;;;;;;14.97;100.00;100070.53;6109250;28;20036;-64
2023/08/07 07:16:48;;;;;;;4.63;2.28;;;;;;;15.14;100.00;100088.75;6103297;28;20064;-64
2023/08/07 07:19:44;;;;;;;4.27;2.00;;;;;;;15.15;100.00;100081.56;6098197;28;20045;-64
2023/08/07 07:22:39;;;;;;;7.27;2.10;;;;;;;15.35;100.00;100091.44;6093584;28;20072;-64
2023/08/07 07:25:34;;;;;;;3.73;2.20;;;;;;;15.50;100.00;100104.75;6096077;28;20347;-64
2023/08/07 07:28:30;;;;;;;4.73;1.77;;;;;;;15.40;100.00;100088.19;6102779;28;20275;-64
2023/08/07 07:31:25;;;;;;;4.25;2.30;;;;;;;15.58;100.00;100106.44;6097027;28;20267;-64
2023/08/07 07:34:21;;;;;;;5.82;2.00;;;;;;;15.58;100.00;100111.78;6101072;28;20086;-64
2023/08/07 07:37:16;;;;;;;3.88;2.15;;;;;;;15.59;100.00;100095.56;6102968;28;20460;-64
2023/08/07 07:40:12;;;;;;;5.13;1.83;;;;;;;15.64;100.00;100095.81;6102406;28;20556;-64
2023/08/07 07:43:07;;;;;;;4.00;1.50;;;;;;;15.81;100.00;100102.53;6100560;28;20292;-64
2023/08/07 07:46:03;;;;;;;6.63;1.88;;;;;;;15.81;100.00;100097.19;6109672;28;20521;-64
2023/08/07 07:48:59;;;;;;;3.58;1.70;;;;;;;15.99;100.00;100110.06;6100841;28;20112;-64
2023/08/07 07:51:54;;;;;;;4.55;1.98;;;;;;;16.10;100.00;100101.47;6102398;28;20644;-64
2023/08/07 07:54:49;;;;;;;3.90;1.50;;;;;;;16.10;100.00;100117.53;6103859;28;20040;-64
2023/08/07 07:57:45;;;;;;;9.53;1.93;;;;;;;16.29;100.00;100122.19;6100980;28;20025;-65
2023/08/07 08:00:40;;;;;;;4.50;2.03;;;;;;;16.25;100.00;100126.25;6106937;28;20033;-64
2023/08/07 08:03:35;;;;;;;3.70;1.80;;;;;;;16.25;100.00;100128.94;6107268;28;20036;-64
2023/08/07 08:06:31;;;;;;;4.00;1.43;;;;;;;16.19;100.00;100113.69;6100326;28;20060;-64
2023/08/07 08:09:26;;;;;;;5.67;2.03;;;;;;;16.40;100.00;100126.16;6101193;28;20313;-64
2023/08/07 08:12:22;;;;;;;5.60;1.97;;;;;;;16.52;100.00;100133.41;6101232;28;20028;-64
2023/08/07 08:15:17;;;;;;;2.40;1.35;;;;;;;16.71;100.00;100134.59;6099607;28;20275;-64
2023/08/07 08:18:12;;;;;;;5.85;1.50;;;;;;;16.71;100.00;100136.44;6107819;28;20025;-64
2023/08/07 08:21:07;;;;;;;2.83;1.60;;;;;;;16.75;100.00;100129.63;6100461;28;20028;-65
2023/08/07 08:24:05;;;;;;;4.30;1.70;;;;;;;16.74;100.00;100111.94;6099378;28;20033;-64
2023/08/07 08:27:01;;;;;;;5.95;1.60;;;;;;;16.82;100.00;100117.09;6100109;28;20021;-64
2023/08/07 08:29:56;;;;;;;4.10;1.60;;;;;;;16.94;100.00;100126.19;6094959;28;20063;-65
2023/08/07 08:32:51;;;;;;;3.87;1.67;;;;;;;17.08;100.00;100138.59;6086064;28;20033;-64
2023/08/07 08:35:46;;;;;;;2.60;1.30;;;;;;;16.93;100.00;100121.88;6109192;28;20388;-64
2023/08/07 08:38:45;;;;;;;4.00;1.57;;;;;;;16.98;100.00;100124.78;6101407;28;20064;-64
2023/08/07 08:41:42;;;;;;;2.63;1.50;;;;;;;17.01;99.83;100132.41;6103657;28;20264;-64
2023/08/07 08:44:39;;;;;;;3.60;1.52;;;;;;;17.08;99.44;100125.22;6098835;28;20029;-64
2023/08/07 08:47:36;;;;;;;4.13;1.10;;;;;;;17.34;98.44;100132.50;6099876;28;20033;-64
2023/08/07 08:50:33;;;;;;;2.47;1.20;;;;;;;17.36;96.62;100119.69;6114554;28;20510;-64
2023/08/07 08:53:28;;;;;;;3.58;1.50;;;;;;;17.20;96.03;100119.03;6098780;28;20368;-65
2023/08/07 08:56:24;;;;;;;3.13;1.17;;;;;;;17.12;96.31;100129.16;6099920;28;20036;-64
2023/08/07 08:59:21;;;;;;;4.22;1.45;;;;;;;17.10;97.68;100144.59;6099482;28;20029;-64
2023/08/07 09:02:17;;;;;;;4.03;1.27;;;;;;;17.63;98.98;100157.09;6099099;28;20367;-64
2023/08/07 09:05:14;;;;;;;2.50;1.10;;;;;;;18.14;93.69;100141.19;6107094;28;20032;-64
2023/08/07 09:08:09;;;;;;;3.53;1.35;;;;;;;18.33;88.95;100142.16;6105180;28;20029;-64
2023/08/07 09:11:05;;;;;;;5.30;1.50;;;;;;;17.67;89.61;100150.28;6115482;28;20036;-64
2023/08/07 09:14:01;;;;;;;4.45;1.50;;;;;;;17.33;95.21;100142.38;6117474;28;20025;-64
2023/08/07 09:16:58;;;;;;;6.53;1.55;;;;;;;17.55;96.58;100164.50;6099458;28;20071;-64
2023/08/07 09:19:53;;;;;;;7.07;1.20;;;;;;;17.51;98.26;100147.13;6113996;28;20035;-64
2023/08/07 09:22:49;;;;;;;3.03;1.40;;;;;;;16.92;100.00;100166.59;6106456;28;20368;-64
2023/08/07 09:25:44;;;;;;;7.13;1.73;;;;;;;15.95;100.00;100195.19;6098084;28;20051;-65
2023/08/07 09:28:40;;;;;;;7.50;2.00;;;;;;;14.77;100.00;100188.59;6104091;28;20035;-64
2023/08/07 09:31:37;;;;;;;5.43;1.60;;;;;;;14.20;100.00;100193.69;6098843;28;20472;-63
2023/08/07 09:34:32;;;;;;;5.28;1.35;;;;;;;14.26;100.00;100210.81;6098055;28;20037;-64
2023/08/07 09:37:27;;;;;;;3.67;1.30;;;;;;;14.37;100.00;100190.91;6098324;28;20083;-63
2023/08/07 09:40:23;;;;;;;4.90;1.60;;;;;;;14.46;100.00;100177.25;6098706;28;20075;-64
2023/08/07 09:43:22;;;;;;;3.97;2.03;;;;;;;14.69;100.00;100212.72;6102416;28;20032;-64
2023/08/07 09:46:17;;;;;;;4.70;1.92;;;;;;;14.90;100.00;100204.75;6099861;28;20111;-64
2023/08/07 09:49:13;;;;;;;5.47;1.63;;;;;;;15.17;100.00;100216.59;6115483;28;20024;-64
2023/08/07 09:52:09;;;;;;;7.40;1.97;;;;;;;15.43;100.00;100211.56;6098063;28;20029;-63
2023/08/07 09:55:05;;;;;;;6.40;1.77;;;;;;;15.73;100.00;100200.78;6102957;28;20294;-64
2023/08/07 09:58:01;;;;;;;4.03;1.35;;;;;;;15.98;100.00;100199.34;6101578;28;20669;-63
2023/08/07 10:00:59;;;;;;;7.03;1.50;;;;;;;16.48;100.00;100191.06;6102515;28;20017;-63
2023/08/07 10:03:54;;;;;;;3.97;1.52;;;;;;;16.53;100.00;100188.63;6105231;28;20049;-63
2023/08/07 10:06:51;;;;;;;3.15;1.35;;;;;;;16.52;100.00;100186.94;6096673;28;20025;-63
2023/08/07 10:09:46;;;;;;;8.05;1.63;;;;;;;16.72;100.00;100203.16;6118011;28;20025;-63
2023/08/07 10:12:45;;;;;;;6.07;1.80;;;;;;;17.16;100.00;100210.78;6106468;28;20044;-63
2023/08/07 10:15:43;;;;;;;6.03;1.77;;;;;;;17.42;100.00;100210.84;6109819;28;20025;-63
2023/08/07 10:18:39;;;;;;;9.57;1.80;;;;;;;17.56;100.00;100184.91;6092504;28;20041;-64
2023/08/07 10:21:36;;;;;;;5.05;1.80;;;;;;;17.51;100.00;100195.41;6107046;28;20450;-64
2023/08/07 10:24:33;;;;;;;3.03;1.50;;;;;;;17.65;100.00;100202.47;6095899;28;20396;-64
2023/08/07 10:27:34;;;;;;;8.05;1.88;;;;;;;17.68;100.00;100184.13;6100609;28;20027;-64
2023/08/07 10:30:30;;;;;;;4.35;1.50;;;;;;;17.61;100.00;100196.69;6113914;28;20028;-64
2023/08/07 10:33:25;;;;;;;8.20;2.72;;;;;;;17.40;100.00;100198.66;6095600;28;20388;-65
2023/08/07 10:36:20;;;;;;;5.65;2.55;;;;;;;16.57;100.00;100208.66;6098408;28;20179;-64
2023/08/07 10:39:16;;;;;;;10.07;2.20;;;;;;;16.00;100.00;100218.69;6104387;28;20090;-64
2023/08/07 10:42:11;;;;;;;3.90;1.77;;;;;;;15.90;100.00;100231.56;6098120;28;20035;-63
2023/08/07 10:45:07;;;;;;;10.73;2.10;;;;;;;16.00;100.00;100208.00;6097384;28;20105;-64
2023/08/07 10:48:13;;;;;;;6.83;1.80;;;;;;;16.22;100.00;100217.66;6100352;28;20781;-63
2023/08/07 10:51:08;;;;;;;4.85;2.10;;;;;;;16.19;100.00;100218.03;6108157;28;20063;-64
2023/08/07 10:54:03;;;;;;;7.50;1.85;;;;;;;16.04;100.00;100231.50;6096622;28;20077;-64
2023/08/07 10:56:59;;;;;;;7.03;1.50;;;;;;;15.92;100.00;100234.88;6097314;28;20369;-64
2023/08/07 10:59:59;;;;;;;4.78;1.35;;;;;;;15.71;100.00;100233.03;6103059;28;20102;-64
2023/08/07 11:02:57;;;;;;;7.13;2.08;;;;;;;15.56;100.00;100247.47;6105243;28;20028;-64
2023/08/07 11:05:53;;;;;;;3.03;0.90;;;;;;;15.23;100.00;100231.03;6112464;28;20472;-63
2023/08/07 11:08:49;;;;;;;2.53;1.15;;;;;;;15.92;100.00;100237.56;6100898;28;20036;-63
2023/08/07 11:11:46;;;;;;;3.13;0.93;;;;;;;16.41;100.00;100227.66;6101276;28;20066;-64
2023/08/07 11:14:42;;;;;;;3.80;0.93;;;;;;;16.99;100.00;100238.94;6106936;28;20039;-64
2023/08/07 11:17:37;;;;;;;3.67;1.03;;;;;;;17.12;100.00;100239.00;6101705;28;20037;-64
2023/08/07 11:20:34;;;;;;;2.30;0.93;;;;;;;17.07;100.00;100233.41;6119560;28;20036;-64
2023/08/07 11:23:30;;;;;;;3.85;1.10;;;;;;;16.90;99.11;100216.03;6101118;28;20393;-65
2023/08/07 11:26:26;;;;;;;7.45;1.38;;;;;;;16.79;99.08;100240.69;6103763;28;20041;-64
2023/08/07 11:29:23;;;;;;;4.20;1.17;;;;;;;16.46;99.85;100229.75;6097859;28;20483;-64
2023/08/07 11:32:20;;;;;;;7.57;1.42;;;;;;;16.38;100.00;100246.78;6107231;28;20036;-64
2023/08/07 11:35:16;;;;;;;7.95;1.48;;;;;;;16.08;100.00;100261.38;6098805;28;20040;-64
2023/08/07 11:38:11;;;;;;;8.45;1.50;;;;;;;16.00;100.00;100261.50;6114678;28;20024;-64
2023/08/07 11:41:07;;;;;;;4.22;1.30;;;;;;;16.05;100.00;100267.94;6104786;28;20029;-63
2023/08/07 11:44:02;;;;;;;4.40;1.30;;;;;;;15.98;100.00;100258.19;6105209;28;20368;-64
2023/08/07 11:46:58;;;;;;;6.97;1.60;;;;;;;16.05;100.00;100251.88;6106303;28;20051;-64
2023/08/07 11:49:53;;;;;;;5.60;1.30;;;;;;;16.08;100.00;100248.81;6104769;28;20411;-64
2023/08/07 11:52:48;;;;;;;4.68;1.48;;;;;;;16.58;100.00;100249.63;6105685;28;20047;-64
2023/08/07 11:56:10;;;;;;;8.95;2.05;;;;;;;16.67;100.00;100235.91;6121009;28;20032;-64
2023/08/07 11:59:06;;;;;;;4.10;1.30;;;;;;;16.71;98.65;100232.81;6106766;28;20047;-64
2023/08/07 12:02:11;;;;;;;2.78;0.95;;;;;;;17.03;97.01;100243.72;6113023;28;20032;-64
2023/08/07 12:05:10;;;;;;;9.27;2.10;;;;;;;17.03;97.77;100251.75;6111884;28;20448;-64
2023/08/07 12:08:07;;;;;;;6.95;1.30;;;;;;;16.86;91.95;100254.94;6092140;28;20036;-64
2023/08/07 12:11:04;;;;;;;4.05;1.33;;;;;;;16.87;89.80;100253.94;6097439;28;20029;-64
2023/08/07 12:14:01;;;;;;;5.53;1.42;;;;;;;17.34;87.89;100240.50;6107087;28;20067;-64
2023/08/07 12:16:56;;;;;;;4.50;0.93;;;;;;;18.01;80.48;100258.44;6104962;28;20084;-64
2023/08/07 12:19:52;;;;;;;5.10;1.23;;;;;;;18.20;75.30;100284.47;6098428;28;20024;-64
2023/08/07 12:22:48;;;;;;;2.27;0.80;;;;;;;17.85;78.04;100281.94;6107951;28;20392;-64
2023/08/07 12:25:44;;;;;;;5.15;1.08;;;;;;;17.89;75.36;100286.88;6114652;28;20033;-64
2023/08/07 12:28:39;;;;;;;5.05;1.05;;;;;;;18.17;76.67;100292.94;6098264;28;20040;-64
2023/08/07 12:31:35;;;;;;;7.47;1.33;;;;;;;18.34;73.02;100280.75;6105414;28;20140;-64
2023/08/07 12:34:30;;;;;;;8.63;1.23;;;;;;;18.52;71.84;100283.66;6101849;28;20031;-63
2023/08/07 12:37:25;;;;;;;7.37;1.10;;;;;;;18.35;72.59;100304.69;6097938;28;20029;-64
2023/08/07 12:40:22;;;;;;;5.77;1.50;;;;;;;17.63;77.70;100319.84;6108390;28;20274;-64
2023/08/07 12:43:18;;;;;;;6.13;1.02;;;;;;;16.81;79.73;100297.56;6099511;28;20066;-64
2023/08/07 12:46:13;;;;;;;8.98;1.15;;;;;;;17.44;75.62;100291.91;6099905;28;20416;-64
2023/08/07 12:49:09;;;;;;;2.63;1.00;;;;;;;17.95;70.99;100310.22;6098140;28;20043;-64
2023/08/07 12:52:05;;;;;;;3.17;0.70;;;;;;;18.06;69.00;100305.09;6097277;28;20033;-64
2023/08/07 12:55:00;;;;;;;5.85;0.90;;;;;;;18.15;72.05;100325.34;6097555;28;20033;-64
2023/08/07 12:57:56;;;;;;;1.90;0.80;;;;;;;18.36;70.88;100332.38;6103035;28;20040;-64
2023/08/07 13:00:52;;;;;;;4.18;1.10;;;;;;;18.21;70.60;100339.78;6101226;28;20044;-64
2023/08/07 13:03:47;;;;;;;3.67;1.10;;;;;;;18.04;71.70;100335.84;6103940;28;20032;-64
2023/08/07 13:06:43;;;;;;;4.33;1.00;;;;;;;17.60;72.62;100329.13;6105194;28;20129;-64
2023/08/07 13:09:39;;;;;;;7.43;0.95;;;;;;;17.69;73.34;100327.91;6096955;28;20495;-64
2023/08/07 13:12:39;;;;;;;4.50;0.90;;;;;;;17.78;73.81;100337.44;6103316;28;20123;-64
2023/08/07 13:15:34;;;;;;;2.20;0.82;;;;;;;18.16;74.21;100331.53;6102223;28;20353;-64
2023/08/07 13:18:30;;;;;;;7.73;1.30;;;;;;;18.07;67.45;100322.88;6100415;28;20082;-63
2023/08/07 13:21:25;;;;;;;5.47;1.30;;;;;;;18.42;65.70;100332.41;6108924;28;20158;-64
2023/08/07 13:24:20;;;;;;;3.40;1.20;;;;;;;18.54;63.68;100342.53;6100231;28;20035;-64
2023/08/07 13:27:16;;;;;;;4.83;1.33;;;;;;;18.87;63.38;100338.81;6099296;28;20367;-65
2023/08/07 13:30:11;;;;;;;6.07;1.27;;;;;;;18.89;62.87;100331.34;6100378;28;20044;-65
2023/08/07 13:33:07;;;;;;;5.07;1.38;;;;;;;18.80;63.51;100335.31;6106557;28;20384;-65